createdAt,value
2019-01-04T00:01:59.493Z,2.84
2019-01-04T00:04:31.025Z,2.85
2019-01-04T00:07:02.416Z,2.84
2019-01-04T00:09:33.646Z,2.84
2019-01-04T00:12:04.942Z,2.84
2019-01-04T00:14:36.171Z,2.84
2019-01-04T00:17:07.445Z,2.85
2019-01-04T00:19:38.618Z,2.86
2019-01-04T00:22:11.950Z,2.85
2019-01-04T00:24:43.127Z,2.86
2019-01-04T00:27:14.325Z,2.86
2019-01-04T00:29:45.593Z,2.86
2019-01-04T00:32:16.795Z,2.83
2019-01-04T00:34:48.320Z,2.82
2019-01-04T00:37:19.636Z,2.81
2019-01-04T00:39:50.856Z,2.81
2019-01-04T00:42:22.085Z,2.82
2019-01-04T00:44:53.327Z,2.80
2019-01-04T00:47:24.573Z,2.79
2019-01-04T00:49:55.803Z,2.78
2019-01-04T00:52:26.997Z,2.76
2019-01-04T00:55:01.295Z,2.73
2019-01-04T00:57:55.068Z,2.72
2019-01-04T01:01:19.112Z,2.70
2019-01-04T01:04:34.617Z,2.68
2019-01-04T01:07:22.571Z,2.67
2019-01-04T01:10:27.816Z,2.64
2019-01-04T01:13:30.109Z,2.63
2019-01-04T01:16:53.510Z,2.60
2019-01-04T01:20:05.750Z,2.53
2019-01-04T01:23:17.787Z,2.50
2019-01-04T01:26:29.468Z,2.46
2019-01-04T01:29:58.871Z,2.41
2019-01-04T01:33:04.879Z,2.38
2019-01-04T01:36:10.799Z,2.35
2019-01-04T01:39:18.149Z,2.34
2019-01-04T01:42:20.439Z,2.34
2019-01-04T01:45:40.895Z,2.36
2019-01-04T01:48:34.255Z,2.35
2019-01-04T01:51:29.760Z,2.34
2019-01-04T01:54:00.951Z,2.34
2019-01-04T01:56:32.149Z,2.29
2019-01-04T01:59:03.390Z,2.29
2019-01-04T02:01:34.629Z,2.28
2019-01-04T02:04:05.879Z,2.29
2019-01-04T02:06:37.068Z,2.26
2019-01-04T02:09:10.310Z,2.23
2019-01-04T02:11:41.506Z,2.23
2019-01-04T02:14:12.748Z,2.25
2019-01-04T02:16:44.048Z,2.25
2019-01-04T02:19:15.268Z,2.24
2019-01-04T02:21:46.498Z,2.21
2019-01-04T02:24:17.730Z,2.20
2019-01-04T02:26:48.948Z,2.19
2019-01-04T02:29:20.150Z,2.16
2019-01-04T02:31:51.359Z,2.14
2019-01-04T02:34:22.549Z,2.12
2019-01-04T02:36:53.677Z,2.11
2019-01-04T02:39:24.914Z,2.10
2019-01-04T02:41:56.109Z,2.09
2019-01-04T02:44:27.299Z,2.11
2019-01-04T02:46:58.523Z,2.11
2019-01-04T02:49:29.804Z,2.08
2019-01-04T02:52:01.016Z,2.06
2019-01-04T02:54:32.246Z,2.04
2019-01-04T02:57:03.494Z,2.05
2019-01-04T02:59:34.684Z,2.06
2019-01-04T03:02:07.669Z,2.05
2019-01-04T03:04:38.883Z,2.06
2019-01-04T03:07:10.027Z,2.07
2019-01-04T03:09:41.366Z,2.06
2019-01-04T03:12:12.497Z,2.05
2019-01-04T03:14:43.729Z,2.02
2019-01-04T03:17:14.860Z,2.00
2019-01-04T03:19:46.097Z,1.98
2019-01-04T03:22:17.274Z,1.96
2019-01-04T03:24:48.448Z,1.95
2019-01-04T03:27:19.706Z,1.94
2019-01-04T03:29:51.076Z,1.91
2019-01-04T03:32:22.308Z,1.89
2019-01-04T03:34:53.510Z,1.88
2019-01-04T03:37:24.715Z,1.89
2019-01-04T03:39:55.941Z,1.91
2019-01-04T03:42:27.118Z,1.92
2019-01-04T03:44:58.301Z,1.92
2019-01-04T03:47:29.502Z,1.91
2019-01-04T03:50:00.932Z,1.91
2019-01-04T03:52:32.113Z,1.92
2019-01-04T03:55:03.319Z,1.93
2019-01-04T03:57:34.572Z,1.93
2019-01-04T04:00:06.623Z,1.91
2019-01-04T04:02:37.860Z,1.92
2019-01-04T04:05:09.107Z,1.93
2019-01-04T04:07:40.316Z,1.94
2019-01-04T04:10:11.498Z,1.95
2019-01-04T04:12:42.739Z,1.96
2019-01-04T04:15:13.991Z,1.96
2019-01-04T04:17:45.143Z,1.97
2019-01-04T04:20:16.327Z,1.99
2019-01-04T04:22:47.484Z,1.99
2019-01-04T04:25:18.682Z,2.00
2019-01-04T04:27:49.885Z,2.01
2019-01-04T04:30:21.082Z,2.01
2019-01-04T04:32:52.294Z,2.04
2019-01-04T04:35:23.551Z,2.06
2019-01-04T04:37:54.740Z,2.08
2019-01-04T04:40:25.918Z,2.08
2019-01-04T04:42:57.164Z,2.11
2019-01-04T04:45:28.369Z,2.11
2019-01-04T04:47:59.606Z,2.13
2019-01-04T04:50:30.845Z,2.16
2019-01-04T04:53:02.185Z,2.18
2019-01-04T04:55:33.434Z,2.19
2019-01-04T04:58:04.677Z,2.21
2019-01-04T05:00:35.902Z,2.22
2019-01-04T05:03:07.157Z,2.25
2019-01-04T05:05:38.334Z,2.28
2019-01-04T05:08:09.557Z,2.30
2019-01-04T05:10:40.678Z,2.31
2019-01-04T05:13:11.925Z,2.33
2019-01-04T05:15:43.101Z,2.34
2019-01-04T05:18:14.323Z,2.35
2019-01-04T05:20:45.500Z,2.37
2019-01-04T05:23:16.735Z,2.39
2019-01-04T05:25:47.930Z,2.39
2019-01-04T05:28:19.192Z,2.41
2019-01-04T05:30:50.417Z,2.41
2019-01-04T05:33:21.694Z,2.42
2019-01-04T05:35:52.911Z,2.43
2019-01-04T05:38:24.195Z,2.46
2019-01-04T05:40:55.396Z,2.48
2019-01-04T05:43:26.659Z,2.50
2019-01-04T05:45:57.954Z,2.52
2019-01-04T05:48:29.227Z,2.55
2019-01-04T05:51:00.511Z,2.57
2019-01-04T05:53:31.686Z,2.59
2019-01-04T05:56:02.863Z,2.62
2019-01-04T05:58:34.062Z,2.65
2019-01-04T06:01:05.226Z,2.68
2019-01-04T06:03:36.489Z,2.72
2019-01-04T06:06:07.678Z,2.74
2019-01-04T06:08:38.922Z,2.77
2019-01-04T06:11:11.253Z,2.80
2019-01-04T06:13:42.459Z,2.83
2019-01-04T06:16:13.677Z,2.86
2019-01-04T06:18:45.053Z,2.89
2019-01-04T06:21:16.292Z,2.92
2019-01-04T06:23:47.469Z,2.94
2019-01-04T06:26:18.711Z,2.97
2019-01-04T06:28:49.941Z,3.01
2019-01-04T06:31:21.175Z,3.02
2019-01-04T06:33:52.400Z,3.06
2019-01-04T06:36:23.689Z,3.08
2019-01-04T06:38:54.923Z,3.10
2019-01-04T06:41:26.184Z,3.12
2019-01-04T06:43:57.358Z,3.13
2019-01-04T06:46:28.597Z,3.13
2019-01-04T06:48:59.782Z,3.15
2019-01-04T06:51:31.000Z,3.16
2019-01-04T06:54:02.217Z,3.16
2019-01-04T06:56:33.393Z,3.18
2019-01-04T06:59:04.602Z,3.23
2019-01-04T07:01:36.174Z,3.26
2019-01-04T07:04:07.359Z,3.29
2019-01-04T07:06:38.530Z,3.33
2019-01-04T07:09:09.725Z,3.36
2019-01-04T07:11:40.989Z,3.38
2019-01-04T07:14:12.234Z,3.38
2019-01-04T07:16:43.497Z,3.37
2019-01-04T07:19:14.727Z,3.37
2019-01-04T07:21:46.010Z,3.37
2019-01-04T07:24:17.231Z,3.39
2019-01-04T07:26:48.480Z,3.38
2019-01-04T07:29:19.671Z,3.37
2019-01-04T07:31:50.901Z,3.33
2019-01-04T07:34:22.068Z,3.32
2019-01-04T07:36:53.289Z,3.29
2019-01-04T07:39:24.473Z,3.25
2019-01-04T07:41:55.673Z,3.23
2019-01-04T07:44:26.920Z,3.20
2019-01-04T07:46:58.145Z,3.16
2019-01-04T07:49:29.423Z,3.11
2019-01-04T07:52:00.598Z,3.04
2019-01-04T07:54:32.175Z,3.04
2019-01-04T07:57:03.405Z,3.05
2019-01-04T07:59:34.620Z,3.06
2019-01-04T08:02:33.813Z,3.09
2019-01-04T08:05:06.748Z,3.10
2019-01-04T08:07:38.018Z,3.12
2019-01-04T08:10:09.336Z,3.12
2019-01-04T08:12:40.733Z,3.13
2019-01-04T08:15:11.927Z,3.10
2019-01-04T08:17:43.164Z,3.11
2019-01-04T08:20:14.436Z,3.13
2019-01-04T08:22:45.786Z,3.16
2019-01-04T08:25:16.966Z,3.19
2019-01-04T08:27:48.188Z,3.24
2019-01-04T08:30:20.441Z,3.28
2019-01-04T08:32:51.829Z,3.32
2019-01-04T08:35:23.172Z,3.34
2019-01-04T08:37:54.336Z,3.36
2019-01-04T08:40:25.608Z,3.36
2019-01-04T08:42:56.814Z,3.38
2019-01-04T08:45:28.027Z,3.41
2019-01-04T08:47:59.296Z,3.44
2019-01-04T08:50:30.925Z,3.44
2019-01-04T08:53:02.166Z,3.45
2019-01-04T08:55:33.476Z,3.47
2019-01-04T08:58:04.651Z,3.48
2019-01-04T09:00:35.978Z,3.49
2019-01-04T09:03:07.202Z,3.49
2019-01-04T09:05:38.410Z,3.48
2019-01-04T09:08:09.653Z,3.49
2019-01-04T09:10:40.902Z,3.46
2019-01-04T09:13:12.173Z,3.51
2019-01-04T09:15:43.378Z,3.49
2019-01-04T09:18:14.690Z,3.51
2019-01-04T09:20:45.984Z,3.49
2019-01-04T09:23:17.469Z,3.48
2019-01-04T09:25:48.750Z,3.46
2019-01-04T09:28:20.095Z,3.45
2019-01-04T09:30:51.281Z,3.45
2019-01-04T09:33:22.483Z,3.42
2019-01-04T09:35:53.999Z,3.42
2019-01-04T09:38:25.210Z,3.41
2019-01-04T09:41:21.250Z,3.40
2019-01-04T09:43:52.426Z,3.42
2019-01-04T09:46:23.606Z,3.42
2019-01-04T09:48:54.881Z,3.36
2019-01-04T09:51:26.166Z,3.43
2019-01-04T09:53:57.566Z,3.37
2019-01-04T09:56:28.940Z,3.37
2019-01-04T09:59:00.179Z,3.35
2019-01-04T10:01:31.554Z,3.32
2019-01-04T10:04:02.817Z,3.36
2019-01-04T10:06:34.124Z,3.37
2019-01-04T10:09:06.846Z,3.39
2019-01-04T10:11:38.061Z,3.38
2019-01-04T10:14:09.299Z,3.39
2019-01-04T10:16:40.472Z,3.37
2019-01-04T10:19:11.630Z,3.36
2019-01-04T10:21:42.810Z,3.36
2019-01-04T10:24:14.004Z,3.36
2019-01-04T10:26:45.189Z,3.40
2019-01-04T10:29:16.448Z,3.44
2019-01-04T10:31:47.690Z,3.49
2019-01-04T10:34:18.895Z,3.55
2019-01-04T10:36:50.139Z,3.58
2019-01-04T10:39:21.352Z,3.59
2019-01-04T10:41:52.791Z,3.60
2019-01-04T10:44:23.979Z,3.60
2019-01-04T10:46:55.166Z,3.60
2019-01-04T10:49:26.352Z,3.63
2019-01-04T10:51:57.553Z,3.65
2019-01-04T10:54:28.715Z,3.66
2019-01-04T10:57:00.106Z,3.66
2019-01-04T10:59:31.353Z,3.67
2019-01-04T11:02:02.582Z,3.73
2019-01-04T11:04:33.906Z,3.78
2019-01-04T11:07:05.097Z,3.90
2019-01-04T11:09:36.302Z,3.96
2019-01-04T11:12:07.620Z,3.96
2019-01-04T11:14:38.812Z,3.99
2019-01-04T11:17:10.062Z,4.02
2019-01-04T11:19:41.249Z,4.01
2019-01-04T11:22:48.585Z,4.02
2019-01-04T11:25:57.886Z,3.97
2019-01-04T11:28:52.980Z,3.98
2019-01-04T11:31:36.816Z,3.98
2019-01-04T11:34:17.908Z,3.98
2019-01-04T11:37:18.087Z,3.99
2019-01-04T11:40:07.813Z,3.98
2019-01-04T11:43:22.667Z,4.00
2019-01-04T11:46:09.881Z,4.03
2019-01-04T11:49:20.699Z,4.05
2019-01-04T11:52:03.925Z,4.06
2019-01-04T11:54:35.216Z,4.08
2019-01-04T11:57:06.491Z,4.11
2019-01-04T11:59:37.720Z,4.11
2019-01-04T12:02:08.960Z,4.11
2019-01-04T12:04:40.212Z,4.13
2019-01-04T12:07:11.389Z,4.16
2019-01-04T12:09:42.650Z,4.18
2019-01-04T12:12:13.823Z,4.19
2019-01-04T12:14:45.180Z,4.22
2019-01-04T12:17:16.402Z,4.25
2019-01-04T12:19:47.632Z,4.28
2019-01-04T12:22:18.931Z,4.31
2019-01-04T12:24:50.145Z,4.30
2019-01-04T12:27:21.463Z,4.38
2019-01-04T12:29:52.661Z,4.38
2019-01-04T12:32:23.866Z,4.38
2019-01-04T12:34:55.093Z,4.40
2019-01-04T12:37:26.323Z,4.40
2019-01-04T12:39:57.573Z,4.42
2019-01-04T12:42:28.811Z,4.45
2019-01-04T12:45:00.132Z,4.47
2019-01-04T12:47:31.535Z,4.51
2019-01-04T12:50:02.666Z,4.52
2019-01-04T12:52:33.916Z,4.54
2019-01-04T12:55:05.619Z,4.57
2019-01-04T12:57:37.851Z,4.58
2019-01-04T13:00:11.424Z,4.60
2019-01-04T13:02:42.839Z,4.61
2019-01-04T13:05:14.097Z,4.62
2019-01-04T13:07:45.283Z,4.61
2019-01-04T13:10:16.518Z,4.61
2019-01-04T13:12:47.686Z,4.60
2019-01-04T13:15:18.871Z,4.59
2019-01-04T13:17:50.085Z,4.58
2019-01-04T13:20:21.299Z,4.58
2019-01-04T13:22:52.615Z,4.60
2019-01-04T13:25:23.824Z,4.60
2019-01-04T13:27:55.102Z,4.62
2019-01-04T13:30:27.381Z,4.63
2019-01-04T13:32:58.555Z,4.65
2019-01-04T13:35:29.752Z,4.67
2019-01-04T13:38:00.979Z,4.67
2019-01-04T13:40:32.180Z,4.70
2019-01-04T13:43:03.687Z,4.70
2019-01-04T13:45:34.995Z,4.71
2019-01-04T13:48:06.651Z,4.70
2019-01-04T13:50:38.342Z,4.72
2019-01-04T13:53:09.598Z,4.73
2019-01-04T13:55:40.891Z,4.74
2019-01-04T13:58:12.111Z,4.75
2019-01-04T14:00:43.371Z,4.76
2019-01-04T14:03:14.710Z,4.78
2019-01-04T14:05:46.063Z,4.78
2019-01-04T14:08:17.808Z,4.80
2019-01-04T14:10:49.342Z,4.83
2019-01-04T14:13:20.903Z,4.83
2019-01-04T14:15:52.615Z,4.84
2019-01-04T14:18:24.095Z,4.85
2019-01-04T14:20:55.281Z,4.87
2019-01-04T14:23:28.896Z,4.86
2019-01-04T14:25:59.601Z,4.87
2019-01-04T14:28:30.795Z,4.87
2019-01-04T14:31:01.975Z,4.88
2019-01-04T14:33:33.331Z,4.89
2019-01-04T14:36:06.954Z,4.91
2019-01-04T14:38:38.386Z,4.91
2019-01-04T14:41:09.693Z,4.92
2019-01-04T14:43:40.872Z,4.90
2019-01-04T14:46:12.059Z,4.90
2019-01-04T14:48:43.385Z,4.89
2019-01-04T14:51:14.578Z,4.88
2019-01-04T14:53:45.749Z,4.88
2019-01-04T14:56:18.584Z,4.85
2019-01-04T14:58:49.781Z,4.85
2019-01-04T15:01:20.927Z,4.84
2019-01-04T15:03:52.125Z,4.83
2019-01-04T15:06:23.443Z,4.83
2019-01-04T15:08:54.570Z,4.83
2019-01-04T15:11:25.844Z,4.82
2019-01-04T15:13:57.058Z,4.82
2019-01-04T15:16:28.217Z,4.83
2019-01-04T15:18:59.478Z,4.83
2019-01-04T15:21:30.680Z,4.84
2019-01-04T15:24:02.018Z,4.85
2019-01-04T15:26:33.195Z,4.85
2019-01-04T15:29:04.455Z,4.86
2019-01-04T15:31:35.635Z,4.88
2019-01-04T15:34:06.921Z,4.87
2019-01-04T15:36:38.322Z,4.88
2019-01-04T15:39:09.512Z,4.90
2019-01-04T15:41:40.908Z,4.91
2019-01-04T15:44:12.109Z,4.92
2019-01-04T15:46:43.400Z,4.93
2019-01-04T15:49:14.654Z,4.96
2019-01-04T15:51:45.882Z,4.97
2019-01-04T15:54:17.052Z,4.98
2019-01-04T15:56:48.299Z,5.01
2019-01-04T15:59:19.712Z,5.02
2019-01-04T16:01:50.929Z,5.04
2019-01-04T16:04:22.202Z,5.05
2019-01-04T16:06:53.491Z,5.07
2019-01-04T16:09:25.100Z,5.08
2019-01-04T16:11:57.112Z,5.09
2019-01-04T16:14:28.323Z,5.10
2019-01-04T16:16:59.836Z,5.12
2019-01-04T16:19:31.606Z,5.12
2019-01-04T16:22:03.084Z,5.15
2019-01-04T16:24:35.041Z,5.13
2019-01-04T16:27:06.492Z,5.15
2019-01-04T16:29:37.838Z,5.18
2019-01-04T16:32:09.283Z,5.20
2019-01-04T16:34:41.585Z,5.21
2019-01-04T16:37:13.392Z,5.22
2019-01-04T16:39:45.062Z,5.23
2019-01-04T16:42:17.890Z,5.24
2019-01-04T16:44:49.617Z,5.28
2019-01-04T16:47:21.214Z,5.29
2019-01-04T16:49:52.648Z,5.32
2019-01-04T16:52:24.351Z,5.33
2019-01-04T16:54:55.552Z,5.34
2019-01-04T16:57:26.768Z,5.33
2019-01-04T16:59:57.911Z,5.34
2019-01-04T17:02:29.154Z,5.35
2019-01-04T17:05:00.516Z,5.35
2019-01-04T17:07:31.756Z,5.36
2019-01-04T17:10:03.119Z,5.38
2019-01-04T17:12:34.326Z,5.38
2019-01-04T17:15:06.036Z,5.42
2019-01-04T17:17:37.329Z,5.44
2019-01-04T17:20:08.912Z,5.47
2019-01-04T17:22:40.148Z,5.49
2019-01-04T17:25:12.370Z,5.49
2019-01-04T17:27:43.849Z,5.51
2019-01-04T17:30:15.237Z,5.52
2019-01-04T17:32:46.497Z,5.54
2019-01-04T17:35:17.726Z,5.55
2019-01-04T17:37:49.126Z,5.57
2019-01-04T17:40:20.497Z,5.58
2019-01-04T17:42:51.745Z,5.59
2019-01-04T17:45:23.321Z,5.62
2019-01-04T17:47:54.669Z,5.64
2019-01-04T17:50:25.921Z,5.67
2019-01-04T17:52:57.220Z,5.69
2019-01-04T17:55:28.406Z,5.70
2019-01-04T17:57:59.694Z,5.74
2019-01-04T18:00:31.475Z,5.75
2019-01-04T18:03:02.702Z,5.76
2019-01-04T18:05:33.984Z,5.78
2019-01-04T18:08:06.583Z,5.79
2019-01-04T18:10:37.846Z,5.82
2019-01-04T18:13:09.140Z,5.84
2019-01-04T18:15:41.437Z,5.85
2019-01-04T18:18:12.824Z,5.89
2019-01-04T18:20:44.191Z,5.90
2019-01-04T18:23:15.521Z,5.91
2019-01-04T18:25:47.749Z,5.93
2019-01-04T18:28:19.002Z,5.94
2019-01-04T18:30:50.294Z,5.95
2019-01-04T18:33:21.553Z,5.94
2019-01-04T18:35:53.727Z,5.94
2019-01-04T18:38:24.988Z,5.96
2019-01-04T18:40:56.262Z,5.97
2019-01-04T18:43:27.853Z,5.98
2019-01-04T18:45:59.059Z,5.99
2019-01-04T18:48:30.473Z,6.02
2019-01-04T18:51:01.704Z,6.02
2019-01-04T18:53:32.937Z,6.04
2019-01-04T18:56:04.184Z,6.05
2019-01-04T18:58:35.643Z,6.07
2019-01-04T19:01:06.875Z,6.07
2019-01-04T19:03:38.122Z,6.07
2019-01-04T19:06:10.389Z,6.08
2019-01-04T19:08:42.225Z,6.09
2019-01-04T19:11:13.429Z,6.09
2019-01-04T19:13:44.734Z,6.12
2019-01-04T19:16:15.968Z,6.12
2019-01-04T19:18:47.184Z,6.11
2019-01-04T19:21:18.454Z,6.12
2019-01-04T19:23:49.743Z,6.13
2019-01-04T19:26:22.259Z,6.13
2019-01-04T19:28:53.523Z,6.14
2019-01-04T19:31:24.816Z,6.14
2019-01-04T19:33:56.034Z,6.15
2019-01-04T19:36:27.365Z,6.15
2019-01-04T19:38:58.624Z,6.17
2019-01-04T19:41:29.823Z,6.15
2019-01-04T19:44:02.124Z,6.15
2019-01-04T19:46:33.343Z,6.14
2019-01-04T19:49:04.791Z,6.12
2019-01-04T19:51:36.219Z,6.10
2019-01-04T19:54:07.710Z,6.08
2019-01-04T19:56:38.973Z,6.06
2019-01-04T19:59:10.331Z,6.04
2019-01-04T20:01:41.537Z,6.03
2019-01-04T20:04:12.834Z,6.01
2019-01-04T20:07:42.113Z,6.01
2019-01-04T20:11:42.453Z,5.99
2019-01-04T20:15:18.864Z,5.93
2019-01-04T20:18:24.131Z,5.90
2019-01-04T20:21:13.309Z,5.86
2019-01-04T20:24:06.696Z,5.85
2019-01-04T20:26:59.927Z,5.84
2019-01-04T20:29:49.082Z,5.81
2019-01-04T20:32:39.329Z,5.80
2019-01-04T20:35:38.836Z,5.78
2019-01-04T20:38:37.850Z,5.76
2019-01-04T20:41:37.029Z,5.77
2019-01-04T20:44:20.031Z,5.78
2019-01-04T20:47:16.294Z,5.78
2019-01-04T20:50:02.393Z,5.77
2019-01-04T20:53:10.907Z,5.78
2019-01-04T20:55:59.698Z,5.77
2019-01-04T20:58:43.830Z,5.77
2019-01-04T21:01:34.001Z,5.76
2019-01-04T21:04:27.308Z,5.77
2019-01-04T21:07:23.505Z,5.78
2019-01-04T21:10:22.592Z,5.78
2019-01-04T21:13:03.607Z,5.78
2019-01-04T21:16:00.003Z,5.78
2019-01-04T21:18:59.412Z,5.77
2019-01-04T21:21:49.267Z,5.76
2019-01-04T21:24:37.996Z,5.78
2019-01-04T21:27:19.296Z,5.80
2019-01-04T21:30:09.502Z,5.83
2019-01-04T21:33:12.190Z,5.84
2019-01-04T21:36:12.382Z,5.87
2019-01-04T21:39:01.848Z,5.91
2019-01-04T21:42:00.079Z,5.91
2019-01-04T21:44:53.065Z,5.93
2019-01-04T21:47:42.186Z,5.97
2019-01-04T21:50:51.800Z,5.99
2019-01-04T21:53:49.525Z,6.02
2019-01-04T21:56:48.751Z,6.07
2019-01-04T21:59:44.842Z,6.11
2019-01-04T22:02:43.925Z,6.12
2019-01-04T22:05:46.403Z,6.13
2019-01-04T22:08:35.259Z,6.12
2019-01-04T22:11:24.107Z,6.13
2019-01-04T22:14:17.031Z,6.13
2019-01-04T22:17:05.938Z,6.15
2019-01-04T22:19:56.100Z,6.18
2019-01-04T22:22:49.192Z,6.22
2019-01-04T22:25:42.968Z,6.26
2019-01-04T22:28:32.229Z,6.30
2019-01-04T22:31:34.538Z,6.32
2019-01-04T22:34:37.383Z,6.35
2019-01-04T22:37:36.861Z,6.38
2019-01-04T22:40:33.355Z,6.42
2019-01-04T22:43:26.510Z,6.47
2019-01-04T22:46:15.713Z,6.49
2019-01-04T22:49:09.171Z,6.52
2019-01-04T22:52:03.418Z,6.55
2019-01-04T22:54:52.271Z,6.57
2019-01-04T22:57:37.173Z,6.59
2019-01-04T23:00:34.055Z,6.62
2019-01-04T23:03:23.658Z,6.63
2019-01-04T23:06:23.184Z,6.65
2019-01-04T23:09:28.099Z,6.66
2019-01-04T23:12:16.935Z,6.68
2019-01-04T23:15:06.123Z,6.70
2019-01-04T23:18:00.209Z,6.71
2019-01-04T23:20:53.476Z,6.73
2019-01-04T23:23:34.159Z,6.76
2019-01-04T23:26:22.986Z,6.77
2019-01-04T23:29:12.889Z,6.77
2019-01-04T23:32:02.241Z,6.79
2019-01-04T23:34:51.288Z,6.79
2019-01-04T23:37:41.422Z,6.81
2019-01-04T23:40:43.641Z,6.82
2019-01-04T23:43:49.118Z,6.85
2019-01-04T23:46:37.578Z,6.87
2019-01-04T23:49:46.114Z,6.87
2019-01-04T23:52:39.325Z,6.89
2019-01-04T23:55:33.315Z,6.91
2019-01-04T23:58:26.690Z,6.92
